createdAt,value
2022-11-05T00:03:01.902Z,98099.92
2022-11-05T00:08:26.894Z,98101.77
2022-11-05T00:13:48.518Z,98106.42
2022-11-05T00:19:07.011Z,98114.23
2022-11-05T00:24:28.567Z,98104.94
2022-11-05T00:29:31.916Z,98108.98
2022-11-05T00:34:34.894Z,98115.10
2022-11-05T00:39:38.224Z,98115.94
2022-11-05T00:44:59.463Z,98116.95
2022-11-05T00:50:02.400Z,98108.14
2022-11-05T00:55:06.757Z,98099.91
2022-11-05T01:00:11.279Z,98094.70
2022-11-05T01:05:14.797Z,98093.10
2022-11-05T01:10:17.814Z,98103.36
2022-11-05T01:15:21.897Z,98115.98
2022-11-05T01:20:24.891Z,98114.15
2022-11-05T01:25:28.168Z,98114.45
2022-11-05T01:30:31.573Z,98123.35
2022-11-05T01:35:34.623Z,98131.89
2022-11-05T01:40:37.512Z,98139.50
2022-11-05T01:45:40.807Z,98138.54
2022-11-05T01:50:58.116Z,98141.49
2022-11-05T01:56:09.815Z,98145.63
2022-11-05T02:01:12.923Z,98152.92
2022-11-05T02:06:17.449Z,98162.15
2022-11-05T02:11:20.773Z,98164.42
2022-11-05T02:16:30.086Z,98171.67
2022-11-05T02:22:23.179Z,98177.30
2022-11-05T02:27:51.067Z,98183.29
2022-11-05T02:33:17.074Z,98187.18
2022-11-05T02:38:47.848Z,98190.70
2022-11-05T02:43:57.104Z,98191.45
2022-11-05T02:49:24.893Z,98202.30
2022-11-05T02:54:30.682Z,98210.92
2022-11-05T02:59:33.544Z,98225.55
2022-11-05T03:04:36.802Z,98238.88
2022-11-05T03:10:18.171Z,98251.77
2022-11-05T03:15:45.382Z,98267.13
2022-11-05T03:21:01.038Z,98285.38
2022-11-05T03:26:17.676Z,98293.48
2022-11-05T03:31:23.102Z,98295.77
2022-11-05T03:36:34.548Z,98297.48
2022-11-05T03:41:43.354Z,98305.48
2022-11-05T03:46:51.962Z,98320.63
2022-11-05T03:52:01.422Z,98326.83
2022-11-05T03:57:10.246Z,98329.80
2022-11-05T04:02:15.644Z,98328.95
2022-11-05T04:07:37.197Z,98332.31
2022-11-05T04:12:58.882Z,98336.61
2022-11-05T04:18:02.018Z,98343.02
2022-11-05T04:23:25.579Z,98347.92
2022-11-05T04:28:48.477Z,98343.45
2022-11-05T04:33:51.490Z,98346.94
2022-11-05T04:38:55.041Z,98348.81
2022-11-05T04:44:00.570Z,98350.75
2022-11-05T04:49:03.640Z,98353.10
2022-11-05T04:54:07.179Z,98355.44
2022-11-05T04:59:10.134Z,98365.05
2022-11-05T05:04:13.120Z,98366.23
2022-11-05T05:09:16.245Z,98378.77
2022-11-05T05:14:19.196Z,98381.79
2022-11-05T05:19:24.548Z,98392.84
2022-11-05T05:24:27.871Z,98396.49
2022-11-05T05:29:30.739Z,98399.46
2022-11-05T05:34:33.853Z,98406.48
2022-11-05T05:39:36.944Z,98405.96
2022-11-05T05:44:39.891Z,98406.20
2022-11-05T05:49:42.765Z,98404.86
2022-11-05T05:54:45.657Z,98413.80
2022-11-05T05:59:48.729Z,98436.83
2022-11-05T06:04:51.678Z,98450.11
2022-11-05T06:09:54.747Z,98450.83
2022-11-05T06:14:58.583Z,98462.73
2022-11-05T06:20:01.825Z,98462.91
2022-11-05T06:25:07.253Z,98472.80
2022-11-05T06:30:10.649Z,98481.86
2022-11-05T06:35:13.921Z,98494.33
2022-11-05T06:40:16.817Z,98502.92
2022-11-05T06:45:20.099Z,98511.70
2022-11-05T06:50:27.378Z,98518.59
2022-11-05T06:55:31.850Z,98518.41
2022-11-05T07:00:34.878Z,98520.52
2022-11-05T07:05:44.039Z,98525.83
2022-11-05T07:10:47.066Z,98531.19
2022-11-05T07:15:50.003Z,98539.09
2022-11-05T07:20:52.960Z,98546.17
2022-11-05T07:25:55.940Z,98555.08
2022-11-05T07:30:59.651Z,98559.48
2022-11-05T07:36:02.641Z,98561.47
2022-11-05T07:41:05.660Z,98567.02
2022-11-05T07:46:13.544Z,98573.44
2022-11-05T07:51:16.787Z,98573.21
2022-11-05T07:56:19.696Z,98579.58
2022-11-05T08:01:35.358Z,98573.65
2022-11-05T08:06:38.507Z,98578.11
2022-11-05T08:11:41.478Z,98576.75
2022-11-05T08:16:44.789Z,98580.28
2022-11-05T08:21:47.946Z,98583.58
2022-11-05T08:26:51.014Z,98587.40
2022-11-05T08:31:53.912Z,98592.73
2022-11-05T08:36:56.904Z,98602.64
2022-11-05T08:41:59.858Z,98603.88
2022-11-05T08:47:02.940Z,98609.09
2022-11-05T08:52:05.916Z,98617.58
2022-11-05T08:57:09.041Z,98623.25
2022-11-05T09:02:12.223Z,98626.42
2022-11-05T09:07:15.458Z,98629.46
2022-11-05T09:12:18.473Z,98633.85
2022-11-05T09:17:22.044Z,98636.47
2022-11-05T09:22:25.018Z,98646.11
2022-11-05T09:27:28.144Z,98650.98
2022-11-05T09:32:32.316Z,98657.88
2022-11-05T09:37:36.933Z,98664.41
2022-11-05T09:42:42.969Z,98671.75
2022-11-05T09:47:52.354Z,98668.98
2022-11-05T09:52:55.322Z,98673.00
2022-11-05T09:58:01.303Z,98675.61
2022-11-05T10:03:08.204Z,98674.70
2022-11-05T10:08:18.667Z,98677.59
2022-11-05T10:13:29.785Z,98684.44
2022-11-05T10:18:47.421Z,98691.33
2022-11-05T10:23:50.319Z,98690.42
2022-11-05T10:28:53.932Z,98692.64
2022-11-05T10:34:02.579Z,98690.88
2022-11-05T10:39:17.779Z,98695.34
2022-11-05T10:44:38.925Z,98696.55
2022-11-05T10:49:59.162Z,98710.73
2022-11-05T10:55:07.405Z,98713.27
2022-11-05T11:00:19.150Z,98715.04
2022-11-05T11:05:33.207Z,98718.20
2022-11-05T11:10:54.238Z,98724.04
2022-11-05T11:16:15.692Z,98723.33
2022-11-05T11:21:23.089Z,98727.94
2022-11-05T11:26:36.506Z,98728.64
2022-11-05T11:31:40.475Z,98733.41
2022-11-05T11:36:46.885Z,98736.08
2022-11-05T11:41:57.524Z,98730.05
2022-11-05T11:47:09.659Z,98733.79
2022-11-05T11:52:30.203Z,98737.94
2022-11-05T11:57:44.134Z,98745.34
2022-11-05T12:03:02.062Z,98745.30
2022-11-05T12:08:11.186Z,98751.51
2022-11-05T12:13:14.197Z,98755.78
2022-11-05T12:18:27.000Z,98760.62
2022-11-05T12:23:44.638Z,98764.40
2022-11-05T12:29:18.830Z,98762.77
2022-11-05T12:34:37.252Z,98770.50
2022-11-05T12:39:50.722Z,98777.67
2022-11-05T12:45:02.251Z,98781.22
2022-11-05T12:50:23.183Z,98779.40
2022-11-05T12:55:31.738Z,98781.30
2022-11-05T13:00:37.487Z,98782.34
2022-11-05T13:05:47.896Z,98785.71
2022-11-05T13:10:59.455Z,98789.69
2022-11-05T13:16:10.185Z,98794.01
2022-11-05T13:21:16.178Z,98794.42
2022-11-05T13:26:52.773Z,98799.35
2022-11-05T13:32:02.742Z,98805.50
2022-11-05T13:37:26.716Z,98813.05
2022-11-05T13:42:41.505Z,98813.45
2022-11-05T13:48:25.477Z,98818.30
2022-11-05T13:53:41.156Z,98821.98
2022-11-05T13:58:52.887Z,98825.00
2022-11-05T14:03:56.741Z,98831.90
2022-11-05T14:09:04.637Z,98836.96
2022-11-05T14:14:16.413Z,98842.33
2022-11-05T14:19:32.469Z,98850.80
2022-11-05T14:24:38.525Z,98864.48
2022-11-05T14:29:43.889Z,98873.51
2022-11-05T14:35:16.081Z,98885.04
2022-11-05T14:40:21.936Z,98891.11
2022-11-05T14:45:33.693Z,98894.58
2022-11-05T14:50:36.860Z,98890.09
2022-11-05T14:55:42.694Z,98894.58
2022-11-05T15:00:47.585Z,98898.23
2022-11-05T15:05:51.897Z,98901.19
2022-11-05T15:11:03.893Z,98912.80
2022-11-05T15:16:07.759Z,98914.39
2022-11-05T15:21:16.315Z,98919.27
2022-11-05T15:26:30.193Z,98923.63
2022-11-05T15:31:41.877Z,98932.11
2022-11-05T15:36:57.386Z,98936.77
2022-11-05T15:42:04.930Z,98941.45
2022-11-05T15:47:24.409Z,98945.30
2022-11-05T15:52:36.752Z,98955.43
2022-11-05T15:57:51.972Z,98960.34
2022-11-05T16:03:15.244Z,98965.88
2022-11-05T16:08:23.327Z,98967.98
2022-11-05T16:13:49.865Z,98975.40
2022-11-05T16:19:40.187Z,98981.85
2022-11-05T16:24:45.094Z,98981.47
2022-11-05T16:29:51.681Z,98981.60
2022-11-05T16:34:58.041Z,98985.02
2022-11-05T16:40:02.124Z,98989.43
2022-11-05T16:45:06.809Z,99002.25
2022-11-05T16:50:15.644Z,99007.03
2022-11-05T16:55:19.964Z,99017.61
2022-11-05T17:00:24.762Z,99026.13
2022-11-05T17:05:30.433Z,99030.94
2022-11-05T17:10:33.553Z,99036.11
2022-11-05T17:15:36.690Z,99039.34
2022-11-05T17:20:44.018Z,99043.75
2022-11-05T17:25:51.289Z,99050.36
2022-11-05T17:30:55.556Z,99058.58
2022-11-05T17:35:58.823Z,99065.95
2022-11-05T17:41:02.300Z,99073.52
2022-11-05T17:46:10.155Z,99072.17
2022-11-05T17:51:18.485Z,99074.96
2022-11-05T17:56:32.600Z,99077.34
2022-11-05T18:01:42.580Z,99075.46
2022-11-05T18:06:45.705Z,99078.22
2022-11-05T18:11:48.664Z,99078.14
2022-11-05T18:16:52.400Z,99084.77
2022-11-05T18:21:57.901Z,99094.79
2022-11-05T18:27:01.004Z,99100.30
2022-11-05T18:32:04.798Z,99100.77
2022-11-05T18:37:07.684Z,99106.52
2022-11-05T18:42:11.218Z,99103.31
2022-11-05T18:47:14.314Z,99102.48
2022-11-05T18:52:17.657Z,99107.34
2022-11-05T18:57:20.629Z,99111.87
2022-11-05T19:02:23.897Z,99118.43
2022-11-05T19:07:27.117Z,99126.10
2022-11-05T19:12:30.025Z,99136.38
2022-11-05T19:17:33.808Z,99143.19
2022-11-05T19:22:36.734Z,99145.59
2022-11-05T19:27:39.594Z,99148.93
2022-11-05T19:32:42.613Z,99151.63
2022-11-05T19:37:45.853Z,99159.46
2022-11-05T19:42:48.703Z,99163.63
2022-11-05T19:47:51.606Z,99171.45
2022-11-05T19:52:56.135Z,99176.79
2022-11-05T19:57:59.162Z,99185.38
2022-11-05T20:03:02.489Z,99192.88
2022-11-05T20:08:05.693Z,99200.09
2022-11-05T20:13:08.634Z,99204.52
2022-11-05T20:18:11.759Z,99209.27
2022-11-05T20:23:15.020Z,99209.50
2022-11-05T20:28:18.238Z,99217.64
2022-11-05T20:33:22.098Z,99229.51
2022-11-05T20:38:25.044Z,99241.48
2022-11-05T20:43:36.586Z,99246.27
2022-11-05T20:48:40.522Z,99257.10
2022-11-05T20:53:43.863Z,99264.77
2022-11-05T20:58:47.481Z,99266.66
2022-11-05T21:03:50.478Z,99268.71
2022-11-05T21:08:53.958Z,99270.16
2022-11-05T21:13:57.342Z,99266.98
2022-11-05T21:19:00.194Z,99258.88
2022-11-05T21:24:03.481Z,99261.15
2022-11-05T21:29:07.790Z,99260.80
2022-11-05T21:34:11.244Z,99263.70
2022-11-05T21:39:14.189Z,99263.49
2022-11-05T21:44:17.229Z,99265.98
2022-11-05T21:49:20.145Z,99269.73
2022-11-05T21:54:41.729Z,99273.13
2022-11-05T21:59:55.264Z,99272.83
2022-11-05T22:05:00.045Z,99277.76
2022-11-05T22:10:08.105Z,99281.00
2022-11-05T22:15:12.864Z,99281.03
2022-11-05T22:20:16.674Z,99285.27
2022-11-05T22:25:20.198Z,99289.96
2022-11-05T22:30:23.112Z,99292.91
2022-11-05T22:35:26.228Z,99287.75
2022-11-05T22:40:29.142Z,99294.23
2022-11-05T22:45:35.717Z,99292.00
2022-11-05T22:50:38.875Z,99290.96
2022-11-05T22:55:44.156Z,99293.61
2022-11-05T23:00:47.146Z,99294.73
2022-11-05T23:05:57.208Z,99297.83
2022-11-05T23:11:29.323Z,99299.13
2022-11-05T23:17:04.171Z,99296.98
2022-11-05T23:22:51.932Z,99295.91
2022-11-05T23:27:55.509Z,99304.46
2022-11-05T23:32:58.425Z,99309.27
2022-11-05T23:38:20.159Z,99305.24
2022-11-05T23:43:41.800Z,99304.20
2022-11-05T23:48:44.753Z,99299.04
2022-11-05T23:53:47.664Z,99298.46
2022-11-05T23:58:50.550Z,99296.27
